Дата Пункты Температура Давл., мм. Влажн., % Ветер Погодные явления
Воздуха Воды Направл. Скорость
22.06.16 12:00 Одесса 29.0 26.0 763 68 Пн-С 2 12 часов
22.06.16 09:00 Одесса 28.0 26.0 763 77 Пн 2 09 часов
22.06.16 06:00 Одесса 23.0 26.0 763 92 Пн 1 06 часов
22.06.16 03:00 Одесса 25.0 26.0 763 78 Пн 1 03 часа
21.06.16 09:00 Одесса 28.0 26.0 763 59 Пн 0 21 час
21.06.16 06:00 Одесса 32.0 25.0 763 56 Пн 0 18 часов
21.06.16 03:00 Одесса 30.0 25.0 764 64 Пд-С 2 15 часов
21.06.16 12:00 Одесса 27.0 25.0 764 80 Пн-С 2 12 часов
21.06.16 09:00 Одесса 27.0 25.0 764 81 Пн 2 09 часов
21.06.16 06:00 Одесса 25.0 25.0 764 91 Пн-С 2 06 часов
21.06.16 03:00 Одесса 25.0 25.0 764 86 Пн-С 1 03 часа
20.06.16 09:00 Одесса 26.0 25.0 763 70 З 1 21 час
20.06.16 06:00 Одесса 30.0 25.0 763 55 Пн 0 18 часов
20.06.16 03:00 Одесса 29.0 25.0 763 66 С 1 15 часов
20.06.16 12:00 Одесса 26.0 23.0 763 79 С 2 12 часов
20.06.16 09:00 Одесса 25.0 23.0 763 86 Пн 2 09 часов
20.06.16 06:00 Одесса 23.0 23.0 761 91 С 2 06 часов
20.06.16 03:00 Одесса 23.0 23.0 761 87 Пн 2 03 часа
19.06.16 09:00 Одесса 22.0 23.0 761 73 Пн 1 21 час
19.06.16 06:00 Одесса 25.0 22.0 761 74 Пн-С 1 18 часов
Количество строк
351 352 353 354 355 356 357 358 359 360
Page 353 of 530